Aegean Navigator — SWBI — position and weather

sailwx.info

Track history (hours):
 
Tides and Currents Weather Stations Pressure Air Temp Water Temp Dewpoint Dewpoint Depression Visibility Wind Speed Wind Dir Waves Ship Positions

Aegean Navigator

Last reported at 2014-Nov-26 20:28 UTC. Time now 2014-Nov-28 03:05 UTC.
Position N 50°33' E 000°12'.

Length 274 m; draft 9 m.

Type: Tanker. MMSI: 240634000.

Date/timePositionNaut miles runAvg speedWind from/ knotsBaromVisibWave heightAir tempDewpointWater temp
2014-Nov-26 20:28N 50°33' E 000°12'1213.7
2014-Nov-26 19:34N 50°37' E 000°31'1413.9
2014-Nov-26 18:33N 50°44' E 000°49'1313.3
2014-Nov-26 17:33N 50°52' E 001°06'1212.1
2014-Nov-26 16:32N 51°00' E 001°20'1010.4
2014-Nov-26 15:33N 51°07' E 001°33'10 9.6
2014-Nov-26 14:33N 51°13' E 001°45'1110.8
2014-Nov-26 13:33N 51°23' E 001°53'1312.7
2014-Nov-26 12:33N 51°33' E 002°05'1414.3
2014-Nov-26 11:33N 51°43' E 002°21'4113.3
2014-Nov-26 08:30N 52°21' E 002°46'3711.7
2014-Nov-26 05:18N 52°54' E 003°15'811.1
2014-Nov-26 04:32N 53°02' E 003°20'7411.9
2014-Nov-25 22:20N 54°05' E 004°25'1512.4
2014-Nov-25 21:09N 54°15' E 004°43'812.5
2014-Nov-25 20:30N 54°21' E 004°53'6412.8
2014-Nov-25 15:29N 55°12' E 005°59'21312.3
2014-Nov-24 22:06N 57°50' E 010°20'713.0
2014-Nov-24 21:33N 57°49' E 010°33'1211.5
2014-Nov-24 20:33N 57°46' E 010°54'1212.3
2014-Nov-24 19:33N 57°37' E 011°10'1212.3
2014-Nov-24 18:33N 57°28' E 011°26'1313.0
2014-Nov-24 17:33N 57°16' E 011°34'  
Track history (hours):
 
Tides and Currents Weather Stations Pressure Air Temp Water Temp Dewpoint Dewpoint Depression Visibility Wind Speed Wind Dir Waves Ship Positions

Aegean Navigator

Last reported at 2014-Nov-26 20:28 UTC. Time now 2014-Nov-28 03:05 UTC.
Position N 50°33' E 000°12'.

Length 274 m; draft 9 m.

Type: Tanker. MMSI: 240634000.

Date/timePositionNaut miles runAvg speedWind from/ knotsBaromVisibWave heightAir tempDewpointWater temp
2014-Nov-26 20:28N 50°33' E 000°12'1213.7
2014-Nov-26 19:34N 50°37' E 000°31'1413.9
2014-Nov-26 18:33N 50°44' E 000°49'1313.3
2014-Nov-26 17:33N 50°52' E 001°06'1212.1
2014-Nov-26 16:32N 51°00' E 001°20'1010.4
2014-Nov-26 15:33N 51°07' E 001°33'10 9.6
2014-Nov-26 14:33N 51°13' E 001°45'1110.8
2014-Nov-26 13:33N 51°23' E 001°53'1312.7
2014-Nov-26 12:33N 51°33' E 002°05'1414.3
2014-Nov-26 11:33N 51°43' E 002°21'4113.3
2014-Nov-26 08:30N 52°21' E 002°46'3711.7
2014-Nov-26 05:18N 52°54' E 003°15'811.1
2014-Nov-26 04:32N 53°02' E 003°20'7411.9
2014-Nov-25 22:20N 54°05' E 004°25'1512.4
2014-Nov-25 21:09N 54°15' E 004°43'812.5
2014-Nov-25 20:30N 54°21' E 004°53'6412.8
2014-Nov-25 15:29N 55°12' E 005°59'21312.3
2014-Nov-24 22:06N 57°50' E 010°20'713.0
2014-Nov-24 21:33N 57°49' E 010°33'1211.5
2014-Nov-24 20:33N 57°46' E 010°54'1212.3
2014-Nov-24 19:33N 57°37' E 011°10'1212.3
2014-Nov-24 18:33N 57°28' E 011°26'1313.0
2014-Nov-24 17:33N 57°16' E 011°34'  

Dump ship's entire track history